Date,TemperatureHighF,TemperatureAvgF,TemperatureLowF,DewpointHighF,DewpointAvgF,DewpointLowF,HumidityHigh,HumidityAvg,HumidityLow,PressureMaxIn,PressureMinIn,WindSpeedMaxMPH,WindSpeedAvgMPH,GustSpeedMaxMPH,PrecipitationSumIn
2013-2-8,43.3,30.7,25.5,13.5,9.9,7.3,52,42,29,29.84,29.81,5,2,9,0.00
2013-2-9,51.6,33.0,25.0,25.2,18.2,10.0,69,56,33,29.82,29.67,15,8,25,0.00
2013-2-10,37.6,29.4,20.8,17.8,12.4,7.0,66,50,30,30.10,29.71,24,12,38,0.00
2013-2-11,39.9,23.4,11.5,19.6,9.8,-0.2,82,58,40,30.13,30.03,9,1,13,0.00
2013-2-12,49.8,27.5,8.4,10.4,3.0,-3.6,62,40,14,30.10,30.04,22,3,27,0.00
2013-2-13,54.3,36.4,19.2,17.8,12.5,4.5,57,39,21,30.10,28.15,22,6,38,0.00
2013-2-14,34.5,29.1,23.2,22.3,15.9,10.9,75,59,40,30.30,30.06,24,6,44,0.00
2013-2-15,42.1,33.8,21.9,25.0,13.9,7.3,80,46,32,30.31,30.25,37,12,53,0.00
2013-2-16,60.6,37.7,15.8,23.2,14.1,4.6,77,44,17,30.25,30.03,20,3,31,0.00
2013-2-17,61.5,39.0,22.3,19.9,9.7,2.8,68,35,10,30.04,29.69,28,6,39,0.00
2013-2-18,46.8,31.8,17.8,20.1,10.1,0.5,68,44,17,30.15,29.88,28,9,43,0.00
2013-2-19,42.1,26.0,11.3,17.6,10.1,1.8,71,53,32,30.15,29.92,8,2,12,0.00
2013-2-20,40.8,25.2,16.2,23.4,15.3,7.9,83,68,40,29.92,29.77,13,4,19,0.00
2013-2-21,36.1,23.9,15.1,23.2,16.5,10.2,85,74,56,29.96,29.83,17,4,28,0.11
2013-2-22,39.7,23.7,10.8,24.4,15.1,6.4,87,72,45,30.02,29.90,57,2,57,0.00
2013-2-23,43.9,28.6,12.6,25.3,15.4,7.0,84,61,35,29.92,29.74,8,2,12,0.00
2013-2-24,30.0,26.5,13.6,25.3,20.6,7.3,87,78,70,30.16,29.83,19,6,33,0.00
2013-2-25,37.0,22.4,5.7,21.2,12.4,-16.1,84,67,23,30.15,26.73,24,2,35,0.10
2013-2-26,39.7,28.1,16.5,23.2,17.6,10.9,81,65,44,30.13,29.82,27,10,38,0.00
2013-2-27,47.3,31.4,17.8,16.3,12.9,8.8,71,49,24,30.22,27.38,25,8,31,0.00
2013-2-28,50.7,33.2,14.5,20.5,11.2,5.5,75,44,21,30.23,30.14,24,5,30,0.00